Time;durP1;ratioP1;P1;durP2;ratioP2;P2;SDS_P1;SDS_P2;PMS_P1;PMS_P2;Temp;Humidity;BMP_temperature;BMP_pressure;BME280_temperature;BME280_humidity;BME280_pressure;Samples;Min_cycle;Max_cycle;Signal;HPM_P1;HPM_P2
2023/06/19 00:05:59;;;;;;;57.77;2.43;;;;;;;;;;5063223;28;20391;-70
2023/06/19 00:08:26;;;;;;;56.50;2.60;;;;;;;;;;5072650;28;20453;-71
2023/06/19 00:10:54;;;;;;;57.60;2.67;;;;;;;;;;5072268;28;20482;-71
2023/06/19 00:13:22;;;;;;;56.67;2.40;;;;;;;;;;5068869;28;20494;-71
2023/06/19 00:18:55;;;;;;;58.07;2.30;;;;;;;;;;5058921;28;20794;-71
2023/06/19 00:21:24;;;;;;;57.30;2.30;;;;;;;;;;5070440;28;20505;-70
2023/06/19 00:23:51;;;;;;;57.70;2.67;;;;;;;;;;5072778;28;20474;-70
2023/06/19 00:26:21;;;;;;;57.70;3.47;;;;;;;;;;5072574;28;20439;-70
2023/06/19 00:28:50;;;;;;;57.30;2.90;;;;;;;;;;5064847;28;20455;-71
2023/06/19 00:31:18;;;;;;;58.47;2.50;;;;;;;;;;5066731;28;20492;-70
2023/06/19 00:33:45;;;;;;;56.67;2.10;;;;;;;;;;5064624;28;20475;-70
2023/06/19 00:36:12;;;;;;;57.10;2.60;;;;;;;;;;5070992;28;20448;-70
2023/06/19 00:38:39;;;;;;;57.20;2.50;;;;;;;;;;5071687;28;20476;-70
2023/06/19 00:41:07;;;;;;;57.40;2.87;;;;;;;;;;5072623;28;20444;-70
2023/06/19 00:43:34;;;;;;;57.30;2.83;;;;;;;;;;5072271;28;20464;-70
2023/06/19 00:46:03;;;;;;;57.00;2.53;;;;;;;;;;5072382;28;20455;-70
2023/06/19 00:48:31;;;;;;;57.23;2.83;;;;;;;;;;5072176;28;20447;-70
2023/06/19 00:50:58;;;;;;;56.50;2.30;;;;;;;;;;5070814;28;20486;-71
2023/06/19 00:53:26;;;;;;;57.40;2.90;;;;;;;;;;5072012;28;20898;-71
2023/06/19 00:55:54;;;;;;;58.67;3.20;;;;;;;;;;5071695;28;20459;-71
2023/06/19 00:58:21;;;;;;;57.23;3.20;;;;;;;;;;5071907;28;20447;-70
2023/06/19 01:00:48;;;;;;;58.03;3.50;;;;;;;;;;5071398;28;20450;-70
2023/06/19 01:03:17;;;;;;;58.07;3.43;;;;;;;;;;5071761;28;20996;-70
2023/06/19 01:05:46;;;;;;;56.87;2.70;;;;;;;;;;5068451;28;20448;-71
2023/06/19 01:08:16;;;;;;;57.13;2.90;;;;;;;;;;5071977;28;20443;-71
2023/06/19 01:10:46;;;;;;;58.83;4.07;;;;;;;;;;5071069;28;20483;-70
2023/06/19 01:13:17;;;;;;;57.47;2.43;;;;;;;;;;5071557;28;20474;-71
2023/06/19 01:15:45;;;;;;;57.17;2.60;;;;;;;;;;5071244;28;20432;-70
2023/06/19 01:18:12;;;;;;;57.70;2.70;;;;;;;;;;5071644;28;20451;-71
2023/06/19 01:20:41;;;;;;;58.10;3.77;;;;;;;;;;5071246;28;20450;-70
2023/06/19 01:23:11;;;;;;;59.33;3.97;;;;;;;;;;5071378;28;20479;-71
2023/06/19 01:25:39;;;;;;;57.90;3.33;;;;;;;;;;5071698;28;20443;-71
2023/06/19 01:28:09;;;;;;;57.80;2.87;;;;;;;;;;5071358;28;20866;-70
2023/06/19 01:30:37;;;;;;;58.07;3.80;;;;;;;;;;5070775;28;20545;-70
2023/06/19 01:33:07;;;;;;;56.93;2.40;;;;;;;;;;5071324;28;20479;-71
2023/06/19 01:35:36;;;;;;;57.80;3.10;;;;;;;;;;5071701;28;20428;-71
2023/06/19 01:38:03;;;;;;;57.27;2.73;;;;;;;;;;5071614;28;20451;-71
2023/06/19 01:40:32;;;;;;;56.87;2.30;;;;;;;;;;5070407;28;20958;-70
2023/06/19 01:43:01;;;;;;;57.77;2.70;;;;;;;;;;5071217;28;20999;-70
2023/06/19 01:45:29;;;;;;;57.07;2.60;;;;;;;;;;5071325;28;20448;-71
2023/06/19 01:47:56;;;;;;;57.10;2.70;;;;;;;;;;5071341;28;20473;-71
2023/06/19 01:50:23;;;;;;;58.17;2.70;;;;;;;;;;5070215;28;20486;-70
2023/06/19 01:52:50;;;;;;;58.53;3.17;;;;;;;;;;5070837;28;20471;-70
2023/06/19 01:55:18;;;;;;;57.40;3.07;;;;;;;;;;5070904;28;20458;-70
2023/06/19 01:57:46;;;;;;;56.77;2.30;;;;;;;;;;5071283;28;20436;-70
2023/06/19 02:00:14;;;;;;;57.07;2.70;;;;;;;;;;5070683;28;20857;-71
2023/06/19 02:02:41;;;;;;;57.00;2.20;;;;;;;;;;5071255;28;20474;-70
2023/06/19 02:05:08;;;;;;;57.77;2.80;;;;;;;;;;5071357;28;20447;-70
2023/06/19 02:07:36;;;;;;;57.10;2.40;;;;;;;;;;5070861;28;20446;-70
2023/06/19 02:10:03;;;;;;;56.80;2.50;;;;;;;;;;5070464;28;20490;-71
2023/06/19 02:12:31;;;;;;;58.80;3.63;;;;;;;;;;5071152;28;20509;-70
2023/06/19 02:14:59;;;;;;;56.73;2.53;;;;;;;;;;5071033;28;20453;-70
2023/06/19 02:17:26;;;;;;;58.00;2.47;;;;;;;;;;5070815;28;20459;-70
2023/06/19 02:19:53;;;;;;;57.20;2.20;;;;;;;;;;5067676;28;20456;-71
2023/06/19 02:22:20;;;;;;;56.57;2.10;;;;;;;;;;5070940;28;20448;-70
2023/06/19 02:24:47;;;;;;;56.90;2.20;;;;;;;;;;5070891;28;20509;-70
2023/06/19 02:27:15;;;;;;;56.80;2.40;;;;;;;;;;5071795;28;20453;-70
2023/06/19 02:29:43;;;;;;;56.80;2.30;;;;;;;;;;5063381;28;20960;-70
2023/06/19 02:32:38;;;;;;;56.87;2.03;;;;;;;;;;5068175;28;20958;-70
2023/06/19 02:35:08;;;;;;;56.93;2.37;;;;;;;;;;5070826;28;20439;-70
2023/06/19 02:37:35;;;;;;;56.90;1.90;;;;;;;;;;5074367;28;20452;-70
2023/06/19 02:40:04;;;;;;;57.10;1.97;;;;;;;;;;5074003;28;20474;-70
2023/06/19 02:42:32;;;;;;;56.97;2.00;;;;;;;;;;5069958;28;20798;-71
2023/06/19 02:45:03;;;;;;;58.33;2.20;;;;;;;;;;5074558;28;20454;-70
2023/06/19 02:47:30;;;;;;;58.50;2.57;;;;;;;;;;5072470;28;20447;-70
2023/06/19 02:49:57;;;;;;;56.60;2.00;;;;;;;;;;5073870;28;20957;-70
2023/06/19 02:52:25;;;;;;;56.97;2.20;;;;;;;;;;5073224;28;20816;-71
2023/06/19 02:54:53;;;;;;;57.37;2.50;;;;;;;;;;5074276;28;20454;-70
2023/06/19 02:57:20;;;;;;;56.63;2.00;;;;;;;;;;5074241;28;20539;-70
2023/06/19 02:59:47;;;;;;;56.77;2.10;;;;;;;;;;5073435;28;20972;-70
2023/06/19 03:02:14;;;;;;;57.17;2.27;;;;;;;;;;5074368;28;20447;-70
2023/06/19 03:04:42;;;;;;;56.83;2.30;;;;;;;;;;5074073;28;21061;-70
2023/06/19 03:07:09;;;;;;;58.13;2.50;;;;;;;;;;5074021;28;20455;-70
2023/06/19 03:09:38;;;;;;;56.90;2.30;;;;;;;;;;5072485;28;20452;-70
2023/06/19 03:12:05;;;;;;;56.93;2.70;;;;;;;;;;5073821;28;20482;-70
2023/06/19 03:14:32;;;;;;;57.17;2.60;;;;;;;;;;5073717;28;20468;-70
2023/06/19 03:16:59;;;;;;;56.60;2.00;;;;;;;;;;5073844;28;20447;-70
2023/06/19 03:19:26;;;;;;;56.87;2.50;;;;;;;;;;5073140;28;20966;-70
2023/06/19 03:21:54;;;;;;;57.97;2.80;;;;;;;;;;5074027;28;20447;-70
2023/06/19 03:24:21;;;;;;;58.47;2.90;;;;;;;;;;5073801;28;20467;-70
2023/06/19 03:26:49;;;;;;;59.10;2.77;;;;;;;;;;5073972;28;20453;-70
2023/06/19 03:29:16;;;;;;;57.40;2.40;;;;;;;;;;5073124;28;20448;-70
2023/06/19 03:31:43;;;;;;;57.00;2.87;;;;;;;;;;5073900;28;20479;-70
2023/06/19 03:34:10;;;;;;;56.60;2.27;;;;;;;;;;5073753;28;20835;-70
2023/06/19 03:36:37;;;;;;;57.20;3.20;;;;;;;;;;5073825;28;20454;-70
2023/06/19 03:39:05;;;;;;;56.87;2.53;;;;;;;;;;5072108;28;20464;-71
2023/06/19 03:41:32;;;;;;;56.97;3.10;;;;;;;;;;5073413;28;20451;-70
2023/06/19 03:44:01;;;;;;;58.23;3.03;;;;;;;;;;5073670;28;20471;-70
2023/06/19 03:46:28;;;;;;;57.17;2.30;;;;;;;;;;5073759;28;20760;-70
2023/06/19 03:48:55;;;;;;;56.67;2.43;;;;;;;;;;5072893;28;20827;-70
2023/06/19 03:51:22;;;;;;;57.40;2.70;;;;;;;;;;5073588;28;20489;-70
2023/06/19 03:53:49;;;;;;;56.87;2.10;;;;;;;;;;5073243;28;20847;-70
2023/06/19 03:56:17;;;;;;;57.73;2.87;;;;;;;;;;5072970;28;20459;-70
2023/06/19 03:58:44;;;;;;;57.00;2.10;;;;;;;;;;5072770;28;20534;-70
2023/06/19 04:01:12;;;;;;;57.00;2.10;;;;;;;;;;5073305;28;20958;-70
2023/06/19 04:03:39;;;;;;;56.63;2.10;;;;;;;;;;5073110;28;20467;-70
2023/06/19 04:06:06;;;;;;;57.47;2.33;;;;;;;;;;5073024;28;20959;-70
2023/06/19 04:08:34;;;;;;;58.67;3.83;;;;;;;;;;5072807;28;20922;-69
2023/06/19 04:11:01;;;;;;;58.07;2.77;;;;;;;;;;5073139;28;20493;-70
2023/06/19 04:13:29;;;;;;;56.97;2.10;;;;;;;;;;5072794;28;20478;-70
2023/06/19 04:15:56;;;;;;;56.97;2.57;;;;;;;;;;5073071;28;20443;-70
2023/06/19 04:18:24;;;;;;;57.00;2.30;;;;;;;;;;5072909;28;20517;-70
2023/06/19 04:20:51;;;;;;;57.60;2.40;;;;;;;;;;5072436;28;20467;-70
2023/06/19 04:23:18;;;;;;;56.53;2.17;;;;;;;;;;5072486;28;20479;-70
2023/06/19 04:25:45;;;;;;;56.57;2.00;;;;;;;;;;5072597;28;21013;-70
2023/06/19 04:28:12;;;;;;;57.07;2.40;;;;;;;;;;5072807;28;20447;-70
2023/06/19 04:30:40;;;;;;;56.70;2.00;;;;;;;;;;5072055;28;20489;-70
2023/06/19 04:33:08;;;;;;;58.50;2.40;;;;;;;;;;5072356;28;20525;-69
2023/06/19 04:35:39;;;;;;;56.80;2.10;;;;;;;;;;5071491;28;20466;-70
2023/06/19 04:38:06;;;;;;;56.37;2.00;;;;;;;;;;5072286;28;20470;-70
2023/06/19 04:40:34;;;;;;;56.47;2.17;;;;;;;;;;5071734;28;20478;-70
2023/06/19 04:43:02;;;;;;;56.67;1.97;;;;;;;;;;5072339;28;20474;-71
2023/06/19 04:45:29;;;;;;;57.00;2.57;;;;;;;;;;5072212;28;20459;-70
2023/06/19 04:47:56;;;;;;;56.57;2.00;;;;;;;;;;5072252;28;20809;-70
2023/06/19 04:50:23;;;;;;;55.87;1.90;;;;;;;;;;5070716;28;20443;-70
2023/06/19 04:52:52;;;;;;;57.00;2.13;;;;;;;;;;5071622;28;20486;-70
2023/06/19 04:55:19;;;;;;;57.00;2.20;;;;;;;;;;5072194;28;20455;-69
2023/06/19 04:57:46;;;;;;;56.77;2.10;;;;;;;;;;5072296;28;20781;-70
2023/06/19 05:00:14;;;;;;;56.27;2.00;;;;;;;;;;5071237;28;20963;-70
2023/06/19 05:02:43;;;;;;;56.80;1.97;;;;;;;;;;5071910;28;20463;-70
2023/06/19 05:05:10;;;;;;;56.97;2.60;;;;;;;;;;5071670;28;20711;-70
2023/06/19 05:07:37;;;;;;;56.50;2.00;;;;;;;;;;5071579;28;20943;-70
2023/06/19 05:10:07;;;;;;;56.97;2.10;;;;;;;;;;5071159;28;20454;-70
2023/06/19 05:12:35;;;;;;;57.10;2.50;;;;;;;;;;5071875;28;20475;-70
2023/06/19 05:15:02;;;;;;;56.80;2.07;;;;;;;;;;5071961;28;20449;-71
2023/06/19 05:17:29;;;;;;;57.30;2.63;;;;;;;;;;5071457;28;20447;-70
2023/06/19 05:19:56;;;;;;;56.70;2.10;;;;;;;;;;5071041;28;20447;-70
2023/06/19 05:22:23;;;;;;;56.70;2.10;;;;;;;;;;5071541;28;20450;-70
2023/06/19 05:24:51;;;;;;;56.40;1.93;;;;;;;;;;5071581;28;20448;-70
2023/06/19 05:27:19;;;;;;;56.17;2.00;;;;;;;;;;5071703;28;20443;-71
2023/06/19 05:29:46;;;;;;;56.80;1.90;;;;;;;;;;5070732;28;20450;-70
2023/06/19 05:32:14;;;;;;;56.53;2.20;;;;;;;;;;5071226;28;20481;-70
2023/06/19 05:34:41;;;;;;;55.97;1.87;;;;;;;;;;5071452;28;20469;-70
2023/06/19 05:37:08;;;;;;;57.10;2.43;;;;;;;;;;5071534;28;20443;-70
2023/06/19 05:39:35;;;;;;;56.63;1.90;;;;;;;;;;5070838;28;20451;-70
2023/06/19 05:42:03;;;;;;;57.37;2.67;;;;;;;;;;5071189;28;20937;-70
2023/06/19 05:44:31;;;;;;;57.37;2.40;;;;;;;;;;5070976;28;20467;-70
2023/06/19 05:46:58;;;;;;;57.30;2.30;;;;;;;;;;5071394;28;20823;-70
2023/06/19 05:49:25;;;;;;;56.60;2.20;;;;;;;;;;5070736;28;20443;-70
2023/06/19 05:54:57;;;;;;;56.57;2.27;;;;;;;;;;5059770;28;20395;-70
2023/06/19 05:57:25;;;;;;;56.40;1.90;;;;;;;;;;5068826;28;20539;-72
2023/06/19 05:59:53;;;;;;;56.60;2.00;;;;;;;;;;5070515;28;20534;-71
2023/06/19 06:02:21;;;;;;;56.87;2.60;;;;;;;;;;5069291;28;20446;-72
2023/06/19 06:04:48;;;;;;;56.53;2.53;;;;;;;;;;5070730;28;20841;-72
2023/06/19 06:07:15;;;;;;;56.63;1.90;;;;;;;;;;5067574;28;20457;-72
2023/06/19 06:09:42;;;;;;;57.30;2.30;;;;;;;;;;5069186;28;20451;-71
2023/06/19 06:18:18;;;;;;;57.83;3.07;;;;;;;;;;5061965;28;20427;-72
2023/06/19 06:20:45;;;;;;;57.30;2.17;;;;;;;;;;5062332;28;20444;-72
2023/06/19 06:23:12;;;;;;;57.20;2.30;;;;;;;;;;5070713;28;20987;-72
2023/06/19 06:25:39;;;;;;;57.10;2.10;;;;;;;;;;5071170;28;20450;-72
2023/06/19 06:28:06;;;;;;;56.13;1.90;;;;;;;;;;5070694;28;20451;-72
2023/06/19 06:30:33;;;;;;;57.10;2.30;;;;;;;;;;5070059;28;20979;-71
2023/06/19 06:33:00;;;;;;;56.47;2.10;;;;;;;;;;5070819;28;20495;-72
2023/06/19 06:35:28;;;;;;;56.57;1.90;;;;;;;;;;5070883;28;20447;-72
2023/06/19 06:37:56;;;;;;;56.53;1.90;;;;;;;;;;5071050;28;20454;-73
2023/06/19 06:40:23;;;;;;;56.57;1.90;;;;;;;;;;5070074;28;20447;-72
2023/06/19 06:42:50;;;;;;;56.60;2.40;;;;;;;;;;5070801;28;20470;-72
2023/06/19 06:45:17;;;;;;;56.90;2.07;;;;;;;;;;5070616;28;20455;-72
2023/06/19 06:47:44;;;;;;;56.50;1.90;;;;;;;;;;5070815;28;20822;-72
2023/06/19 06:50:11;;;;;;;57.97;2.30;;;;;;;;;;5070048;28;20447;-71
2023/06/19 06:52:40;;;;;;;57.10;2.30;;;;;;;;;;5070319;28;20479;-71
2023/06/19 06:55:07;;;;;;;57.20;2.43;;;;;;;;;;5070545;28;20447;-71
2023/06/19 06:57:34;;;;;;;56.40;2.53;;;;;;;;;;5070727;28;20446;-71
2023/06/19 07:00:03;;;;;;;56.70;1.90;;;;;;;;;;5069818;28;20966;-71
2023/06/19 07:02:30;;;;;;;56.50;2.20;;;;;;;;;;5070655;28;20479;-72
2023/06/19 07:04:57;;;;;;;56.70;1.87;;;;;;;;;;5070614;28;20501;-71
2023/06/19 07:07:24;;;;;;;56.77;1.90;;;;;;;;;;5070654;28;20451;-71
2023/06/19 07:09:53;;;;;;;56.47;1.90;;;;;;;;;;5069868;28;20443;-71
2023/06/19 07:12:20;;;;;;;56.30;1.80;;;;;;;;;;5070509;28;20493;-72
2023/06/19 07:14:47;;;;;;;56.60;1.93;;;;;;;;;;5072286;28;20444;-71
2023/06/19 07:17:14;;;;;;;56.60;2.00;;;;;;;;;;5073885;28;20446;-71
2023/06/19 07:19:41;;;;;;;56.60;2.77;;;;;;;;;;5073211;28;20823;-71
2023/06/19 07:22:08;;;;;;;56.57;1.83;;;;;;;;;;5073819;28;20541;-71
2023/06/19 07:24:35;;;;;;;56.37;2.00;;;;;;;;;;5073590;28;20478;-71
2023/06/19 07:27:04;;;;;;;56.17;1.80;;;;;;;;;;5073689;28;20939;-71
2023/06/19 07:29:32;;;;;;;56.80;2.10;;;;;;;;;;5072989;28;20943;-71
2023/06/19 07:32:01;;;;;;;56.33;1.70;;;;;;;;;;5073705;28;20479;-71
2023/06/19 07:34:28;;;;;;;56.37;1.60;;;;;;;;;;5073550;28;20479;-71
2023/06/19 07:36:55;;;;;;;56.57;1.70;;;;;;;;;;5073662;28;20457;-70
2023/06/19 07:39:22;;;;;;;56.70;1.80;;;;;;;;;;5072869;28;20458;-71
2023/06/19 07:41:49;;;;;;;56.80;1.90;;;;;;;;;;5073651;28;20522;-71
2023/06/19 07:44:20;;;;;;;55.77;2.00;;;;;;;;;;5073558;28;20478;-71
2023/06/19 07:46:47;;;;;;;57.47;2.40;;;;;;;;;;5073694;28;20866;-71
2023/06/19 07:49:14;;;;;;;56.17;1.70;;;;;;;;;;5071539;28;20523;-72
2023/06/19 07:51:42;;;;;;;56.20;1.80;;;;;;;;;;5073324;28;20475;-71
2023/06/19 07:54:09;;;;;;;56.57;1.90;;;;;;;;;;5073593;28;20748;-72
2023/06/19 07:56:36;;;;;;;56.37;1.80;;;;;;;;;;5073120;28;20505;-71
2023/06/19 07:59:03;;;;;;;56.50;1.90;;;;;;;;;;5072475;28;20452;-70
2023/06/19 08:01:31;;;;;;;56.47;2.07;;;;;;;;;;5073381;28;20455;-71
2023/06/19 08:03:59;;;;;;;56.33;1.90;;;;;;;;;;5072833;28;20471;-71
2023/06/19 08:06:26;;;;;;;56.57;2.10;;;;;;;;;;5073100;28;20795;-71
2023/06/19 08:08:53;;;;;;;56.63;2.00;;;;;;;;;;5072709;28;20443;-72
2023/06/19 08:11:20;;;;;;;56.50;1.70;;;;;;;;;;5073506;28;20458;-72
2023/06/19 08:13:47;;;;;;;56.50;1.80;;;;;;;;;;5072892;28;20492;-72
2023/06/19 08:16:15;;;;;;;56.40;1.80;;;;;;;;;;5072737;28;20460;-71
2023/06/19 08:18:44;;;;;;;56.70;1.97;;;;;;;;;;5070564;28;20542;-71
2023/06/19 08:21:11;;;;;;;56.37;1.70;;;;;;;;;;5072876;28;20487;-71
2023/06/19 08:23:39;;;;;;;56.63;2.20;;;;;;;;;;5072586;28;20475;-71
2023/06/19 08:26:07;;;;;;;56.80;2.17;;;;;;;;;;5072173;28;20513;-71
2023/06/19 08:28:35;;;;;;;55.93;1.70;;;;;;;;;;5071869;28;20827;-72
2023/06/19 08:31:02;;;;;;;56.27;2.00;;;;;;;;;;5072544;28;20451;-71
2023/06/19 08:33:29;;;;;;;56.60;1.80;;;;;;;;;;5072181;28;20503;-71
2023/06/19 08:35:58;;;;;;;56.50;1.80;;;;;;;;;;5072447;28;20451;-72
2023/06/19 08:38:25;;;;;;;56.40;1.87;;;;;;;;;;5072589;28;20447;-71
2023/06/19 08:40:52;;;;;;;56.20;1.80;;;;;;;;;;5071917;28;20447;-72
2023/06/19 08:43:19;;;;;;;56.50;1.90;;;;;;;;;;5072291;28;20900;-71
2023/06/19 08:45:53;;;;;;;56.57;2.00;;;;;;;;;;5072025;28;20448;-72
2023/06/19 08:48:22;;;;;;;56.33;2.20;;;;;;;;;;5072397;28;20451;-71
2023/06/19 08:50:49;;;;;;;56.27;1.80;;;;;;;;;;5071700;28;20455;-71
2023/06/19 08:53:18;;;;;;;56.37;1.70;;;;;;;;;;5071852;28;20487;-72
2023/06/19 08:55:45;;;;;;;56.07;1.90;;;;;;;;;;5072052;28;20812;-71
2023/06/19 08:58:12;;;;;;;56.53;1.90;;;;;;;;;;5072134;28;20458;-72
2023/06/19 09:00:39;;;;;;;56.37;1.80;;;;;;;;;;5071683;28;20492;-71
2023/06/19 09:03:06;;;;;;;56.13;1.70;;;;;;;;;;5071990;28;20463;-72
2023/06/19 09:05:34;;;;;;;56.17;1.50;;;;;;;;;;5071806;28;20443;-72
2023/06/19 09:08:01;;;;;;;56.07;1.73;;;;;;;;;;5067546;28;20809;-72
2023/06/19 09:10:33;;;;;;;57.40;3.20;;;;;;;;;;5070329;28;20447;-71
2023/06/19 09:13:01;;;;;;;56.77;1.77;;;;;;;;;;5071818;28;20495;-71
2023/06/19 09:15:29;;;;;;;56.70;2.30;;;;;;;;;;5071713;28;20447;-72
2023/06/19 09:18:03;;;;;;;56.27;1.90;;;;;;;;;;5071651;28;20483;-72
2023/06/19 09:20:31;;;;;;;56.80;1.83;;;;;;;;;;5071157;28;20450;-72
2023/06/19 09:22:58;;;;;;;56.23;1.87;;;;;;;;;;5071645;28;20513;-72
2023/06/19 09:25:26;;;;;;;56.37;1.80;;;;;;;;;;5071337;28;20880;-71
2023/06/19 09:27:55;;;;;;;56.40;1.70;;;;;;;;;;5071406;28;20459;-71
2023/06/19 09:30:22;;;;;;;56.47;2.03;;;;;;;;;;5070973;28;20884;-72
2023/06/19 09:32:49;;;;;;;56.50;1.70;;;;;;;;;;5071300;28;20487;-72
2023/06/19 09:35:17;;;;;;;56.60;2.10;;;;;;;;;;5071341;28;20454;-72
2023/06/19 09:37:45;;;;;;;56.07;1.70;;;;;;;;;;5070919;28;20451;-71
2023/06/19 09:40:13;;;;;;;56.23;1.67;;;;;;;;;;5070890;28;20452;-72
2023/06/19 09:42:40;;;;;;;56.97;2.00;;;;;;;;;;5071413;28;20466;-70
2023/06/19 09:45:10;;;;;;;56.87;2.10;;;;;;;;;;5071402;28;20789;-72
2023/06/19 09:47:38;;;;;;;56.03;1.60;;;;;;;;;;5071253;28;20447;-72
2023/06/19 09:50:06;;;;;;;56.43;1.97;;;;;;;;;;5070639;28;20443;-72
2023/06/19 09:52:34;;;;;;;56.20;1.90;;;;;;;;;;5070929;28;20486;-72
2023/06/19 09:55:03;;;;;;;56.80;2.13;;;;;;;;;;5071057;28;20916;-71
2023/06/19 09:57:30;;;;;;;56.23;2.10;;;;;;;;;;5071091;28;21007;-72
2023/06/19 09:59:58;;;;;;;56.53;2.00;;;;;;;;;;5070653;28;20448;-72
2023/06/19 10:02:27;;;;;;;56.17;1.70;;;;;;;;;;5071000;28;20447;-72
2023/06/19 10:04:55;;;;;;;56.50;2.30;;;;;;;;;;5070865;28;20819;-72
2023/06/19 10:07:23;;;;;;;56.30;1.90;;;;;;;;;;5071284;28;20435;-72
2023/06/19 10:09:58;;;;;;;56.90;3.03;;;;;;;;;;5070432;28;20448;-70
2023/06/19 10:12:35;;;;;;;56.50;2.13;;;;;;;;;;5070830;28;21033;-71
2023/06/19 10:15:09;;;;;;;56.30;1.70;;;;;;;;;;5071023;28;20459;-72
2023/06/19 10:17:38;;;;;;;56.10;1.70;;;;;;;;;;5070721;28;20937;-72
2023/06/19 10:20:13;;;;;;;56.30;1.90;;;;;;;;;;5069080;28;20585;-72
2023/06/19 10:22:40;;;;;;;56.60;2.20;;;;;;;;;;5070732;28;20478;-72
2023/06/19 10:25:08;;;;;;;56.33;2.10;;;;;;;;;;5070719;28;20832;-72
2023/06/19 10:27:40;;;;;;;56.50;1.77;;;;;;;;;;5070924;28;20537;-72
2023/06/19 10:30:18;;;;;;;56.40;1.90;;;;;;;;;;5070156;28;20455;-72
2023/06/19 10:32:46;;;;;;;57.03;3.63;;;;;;;;;;5059061;28;20491;-70
2023/06/19 10:35:14;;;;;;;55.70;1.77;;;;;;;;;;5066814;28;20448;-69
2023/06/19 10:37:41;;;;;;;55.90;2.00;;;;;;;;;;5070559;28;20448;-73
2023/06/19 10:40:10;;;;;;;55.47;2.07;;;;;;;;;;5070154;28;20908;-72
2023/06/19 10:42:38;;;;;;;55.40;1.80;;;;;;;;;;5070715;28;20447;-73
2023/06/19 10:45:06;;;;;;;55.63;2.27;;;;;;;;;;5070550;28;20452;-72
2023/06/19 10:47:33;;;;;;;55.50;2.03;;;;;;;;;;5070718;28;20520;-73
2023/06/19 10:50:02;;;;;;;55.77;2.30;;;;;;;;;;5074012;28;20447;-72
2023/06/19 10:52:30;;;;;;;55.53;1.80;;;;;;;;;;5072100;28;21056;-72
2023/06/19 10:54:57;;;;;;;55.30;1.93;;;;;;;;;;5069754;28;20505;-70
2023/06/19 10:57:28;;;;;;;55.33;2.17;;;;;;;;;;5074350;28;20451;-70
2023/06/19 10:59:55;;;;;;;55.60;2.37;;;;;;;;;;5073681;28;20439;-70
2023/06/19 11:02:22;;;;;;;54.90;1.80;;;;;;;;;;5074681;28;20451;-69
2023/06/19 11:04:50;;;;;;;55.20;1.97;;;;;;;;;;5074501;28;20443;-70
2023/06/19 11:07:18;;;;;;;55.27;2.30;;;;;;;;;;5074023;28;20454;-70
2023/06/19 11:09:45;;;;;;;55.40;1.80;;;;;;;;;;5073653;28;20813;-70
2023/06/19 11:12:13;;;;;;;55.00;2.00;;;;;;;;;;5074321;28;20458;-70
2023/06/19 11:14:41;;;;;;;54.77;1.73;;;;;;;;;;5073998;28;20494;-71
2023/06/19 11:17:09;;;;;;;55.47;2.07;;;;;;;;;;5073979;28;20500;-70
2023/06/19 11:19:38;;;;;;;55.17;2.03;;;;;;;;;;5073563;28;20643;-71
2023/06/19 11:22:07;;;;;;;55.50;2.03;;;;;;;;;;5073773;28;20451;-70
2023/06/19 11:24:36;;;;;;;55.90;2.43;;;;;;;;;;5074099;28;20467;-70
2023/06/19 11:27:04;;;;;;;55.37;2.03;;;;;;;;;;5073844;28;20453;-70
2023/06/19 11:29:32;;;;;;;56.03;2.13;;;;;;;;;;5073088;28;20550;-71
2023/06/19 11:32:06;;;;;;;56.60;2.07;;;;;;;;;;5073891;28;20462;-70
2023/06/19 11:34:34;;;;;;;55.90;2.33;;;;;;;;;;5073642;28;20482;-70
2023/06/19 11:37:01;;;;;;;55.27;1.80;;;;;;;;;;5073711;28;20555;-71
2023/06/19 11:39:29;;;;;;;55.43;2.30;;;;;;;;;;5072853;28;20453;-70
2023/06/19 11:42:00;;;;;;;55.40;2.20;;;;;;;;;;5073455;28;20962;-70
2023/06/19 11:44:27;;;;;;;55.93;1.70;;;;;;;;;;5073330;28;20468;-71
2023/06/19 11:46:58;;;;;;;55.50;2.20;;;;;;;;;;5073574;28;20824;-71
2023/06/19 11:49:25;;;;;;;55.10;1.87;;;;;;;;;;5072746;28;20977;-70
2023/06/19 11:51:53;;;;;;;54.90;2.30;;;;;;;;;;5072939;28;20932;-71
2023/06/19 11:54:20;;;;;;;54.70;1.80;;;;;;;;;;5073260;28;20904;-70
2023/06/19 11:56:48;;;;;;;54.80;1.80;;;;;;;;;;5073055;28;20463;-71
2023/06/19 11:59:17;;;;;;;54.80;1.50;;;;;;;;;;5072731;28;20443;-71
2023/06/19 12:01:44;;;;;;;54.67;2.00;;;;;;;;;;5072617;28;20486;-71
2023/06/19 12:04:11;;;;;;;54.57;1.80;;;;;;;;;;5073007;28;20470;-70
2023/06/19 12:06:38;;;;;;;55.20;2.10;;;;;;;;;;5073383;28;20477;-71
2023/06/19 12:09:06;;;;;;;55.50;2.20;;;;;;;;;;5072398;28;20451;-71
2023/06/19 12:11:33;;;;;;;54.80;1.60;;;;;;;;;;5073201;28;20811;-70
2023/06/19 12:14:00;;;;;;;54.63;1.70;;;;;;;;;;5072741;28;20573;-70
2023/06/19 12:16:28;;;;;;;55.00;1.80;;;;;;;;;;5073050;28;20448;-70
2023/06/19 12:18:55;;;;;;;55.07;2.10;;;;;;;;;;5070012;28;20801;-71
2023/06/19 12:21:22;;;;;;;55.20;1.80;;;;;;;;;;5071620;28;20455;-70
2023/06/19 12:23:50;;;;;;;55.00;1.90;;;;;;;;;;5071152;28;21001;-71
2023/06/19 12:26:17;;;;;;;54.23;1.60;;;;;;;;;;5072554;28;20448;-70
2023/06/19 12:28:44;;;;;;;54.97;2.00;;;;;;;;;;5071852;28;20470;-71
2023/06/19 12:31:11;;;;;;;54.37;1.60;;;;;;;;;;5072867;28;20446;-71
2023/06/19 12:33:43;;;;;;;55.60;2.23;;;;;;;;;;5072624;28;20860;-71
2023/06/19 12:36:13;;;;;;;54.93;1.80;;;;;;;;;;5072617;28;20896;-70
2023/06/19 12:38:40;;;;;;;54.97;1.60;;;;;;;;;;5072098;28;20454;-71
2023/06/19 12:41:07;;;;;;;55.50;1.93;;;;;;;;;;5072523;28;20444;-71
2023/06/19 12:43:34;;;;;;;55.70;2.37;;;;;;;;;;5072525;28;20482;-71
2023/06/19 12:46:01;;;;;;;55.20;2.00;;;;;;;;;;5072482;28;20447;-70
2023/06/19 12:48:29;;;;;;;55.00;1.80;;;;;;;;;;5072202;28;20482;-71
2023/06/19 12:50:57;;;;;;;54.97;1.90;;;;;;;;;;5071721;28;20458;-71
2023/06/19 12:53:28;;;;;;;55.23;2.40;;;;;;;;;;5072555;28;20483;-70
2023/06/19 12:55:55;;;;;;;55.37;2.10;;;;;;;;;;5072018;28;20560;-70
2023/06/19 12:58:23;;;;;;;55.50;2.30;;;;;;;;;;5072196;28;20447;-71
2023/06/19 13:00:50;;;;;;;55.30;1.97;;;;;;;;;;5071267;28;20940;-71
2023/06/19 13:03:18;;;;;;;56.20;2.47;;;;;;;;;;5072182;28;20467;-71
2023/06/19 13:05:45;;;;;;;55.37;2.00;;;;;;;;;;5071910;28;20457;-69
2023/06/19 13:08:14;;;;;;;55.20;1.80;;;;;;;;;;5071701;28;20455;-71
2023/06/19 13:10:41;;;;;;;55.10;2.10;;;;;;;;;;5071424;28;20443;-71
2023/06/19 13:13:10;;;;;;;54.93;1.73;;;;;;;;;;5070874;28;20483;-71
2023/06/19 13:15:37;;;;;;;55.03;2.00;;;;;;;;;;5071655;28;20989;-70
2023/06/19 13:18:04;;;;;;;54.90;2.47;;;;;;;;;;5071902;28;20444;-70
2023/06/19 13:20:31;;;;;;;54.80;1.70;;;;;;;;;;5070907;28;20455;-70
2023/06/19 13:22:58;;;;;;;55.10;2.00;;;;;;;;;;5071360;28;20829;-70
2023/06/19 13:25:27;;;;;;;55.10;2.03;;;;;;;;;;5071600;28;20448;-70
2023/06/19 13:27:54;;;;;;;55.00;1.93;;;;;;;;;;5071632;28;20446;-69
2023/06/19 13:30:21;;;;;;;54.40;1.73;;;;;;;;;;5070733;28;20454;-70
2023/06/19 13:32:48;;;;;;;54.37;1.50;;;;;;;;;;5071584;28;20473;-70
2023/06/19 13:35:15;;;;;;;54.80;1.80;;;;;;;;;;5071080;28;20483;-71
2023/06/19 13:37:42;;;;;;;54.60;1.80;;;;;;;;;;5071544;28;20457;-70
2023/06/19 13:40:10;;;;;;;54.70;1.50;;;;;;;;;;5070626;28;20447;-71
2023/06/19 13:42:38;;;;;;;54.67;1.70;;;;;;;;;;5071418;28;20473;-70
2023/06/19 13:45:06;;;;;;;55.80;2.03;;;;;;;;;;5071584;28;20444;-70
2023/06/19 13:47:33;;;;;;;54.73;1.67;;;;;;;;;;5071699;28;20469;-70
2023/06/19 13:50:01;;;;;;;55.00;2.00;;;;;;;;;;5070576;28;20450;-70
2023/06/19 13:52:28;;;;;;;54.53;1.50;;;;;;;;;;5071306;28;20509;-70
2023/06/19 13:54:55;;;;;;;55.10;2.20;;;;;;;;;;5070906;28;21041;-70
2023/06/19 13:57:22;;;;;;;54.60;1.70;;;;;;;;;;5071361;28;20436;-70
2023/06/19 13:59:51;;;;;;;54.50;1.77;;;;;;;;;;5070617;28;20454;-70
2023/06/19 14:02:18;;;;;;;54.67;2.20;;;;;;;;;;5070635;28;20819;-70
2023/06/19 14:04:45;;;;;;;54.77;2.10;;;;;;;;;;5070717;28;20471;-70
2023/06/19 14:07:12;;;;;;;54.60;2.10;;;;;;;;;;5071242;28;20533;-71
2023/06/19 14:09:39;;;;;;;55.07;2.00;;;;;;;;;;5070308;28;20447;-71
2023/06/19 14:12:07;;;;;;;54.80;2.30;;;;;;;;;;5071243;28;20451;-70
2023/06/19 14:14:35;;;;;;;54.47;1.70;;;;;;;;;;5071111;28;20494;-71
2023/06/19 14:17:03;;;;;;;54.87;1.90;;;;;;;;;;5070746;28;20459;-71
2023/06/19 14:19:30;;;;;;;55.10;1.93;;;;;;;;;;5070181;28;20447;-71
2023/06/19 14:21:58;;;;;;;55.37;2.03;;;;;;;;;;5071137;28;20447;-71
2023/06/19 14:24:25;;;;;;;54.90;1.70;;;;;;;;;;5073942;28;20460;-70
2023/06/19 14:26:52;;;;;;;54.87;1.60;;;;;;;;;;5074886;28;20963;-71
2023/06/19 14:29:20;;;;;;;55.37;1.83;;;;;;;;;;5074213;28;20457;-71
2023/06/19 14:31:47;;;;;;;55.30;1.90;;;;;;;;;;5074933;28;20466;-71
2023/06/19 14:34:16;;;;;;;56.10;2.73;;;;;;;;;;5074753;28;20862;-71
2023/06/19 14:36:43;;;;;;;55.50;2.00;;;;;;;;;;5074897;28;20506;-71
2023/06/19 14:39:11;;;;;;;55.63;2.13;;;;;;;;;;5074099;28;20455;-70
2023/06/19 14:41:38;;;;;;;56.00;2.20;;;;;;;;;;5074668;28;20451;-70
2023/06/19 14:44:06;;;;;;;56.00;2.30;;;;;;;;;;5074725;28;20824;-71
2023/06/19 14:46:33;;;;;;;55.10;1.80;;;;;;;;;;5074471;28;20455;-71
2023/06/19 14:49:00;;;;;;;55.33;1.73;;;;;;;;;;5074162;28;20744;-70
2023/06/19 14:51:29;;;;;;;55.27;1.90;;;;;;;;;;5074656;28;20451;-71